sensor_id;sensor_type;location;lat;lon;timestamp;temperature;humidity
51811;DHT22;52468;40.116;18.296;2024-03-29T00:02:20;14.90;82.10
51811;DHT22;52468;40.116;18.296;2024-03-29T00:04:47;14.90;82.00
51811;DHT22;52468;40.116;18.296;2024-03-29T00:07:14;14.80;82.00
51811;DHT22;52468;40.116;18.296;2024-03-29T00:09:40;14.80;81.90
51811;DHT22;52468;40.116;18.296;2024-03-29T00:12:07;14.80;82.00
51811;DHT22;52468;40.116;18.296;2024-03-29T00:14:34;14.70;82.10
51811;DHT22;52468;40.116;18.296;2024-03-29T00:17:01;14.60;82.10
51811;DHT22;52468;40.116;18.296;2024-03-29T00:19:30;14.60;82.20
51811;DHT22;52468;40.116;18.296;2024-03-29T00:21:58;14.60;82.20
51811;DHT22;52468;40.116;18.296;2024-03-29T00:24:25;14.60;82.30
51811;DHT22;52468;40.116;18.296;2024-03-29T00:26:52;14.50;82.30
51811;DHT22;52468;40.116;18.296;2024-03-29T00:29:19;14.50;82.60
51811;DHT22;52468;40.116;18.296;2024-03-29T00:31:45;14.50;82.60
51811;DHT22;52468;40.116;18.296;2024-03-29T00:34:13;14.50;82.50
51811;DHT22;52468;40.116;18.296;2024-03-29T00:36:40;14.50;82.50
51811;DHT22;52468;40.116;18.296;2024-03-29T00:39:07;14.50;82.40
51811;DHT22;52468;40.116;18.296;2024-03-29T00:41:37;14.50;82.30
51811;DHT22;52468;40.116;18.296;2024-03-29T00:44:04;14.50;82.30
51811;DHT22;52468;40.116;18.296;2024-03-29T00:46:31;14.50;82.40
51811;DHT22;52468;40.116;18.296;2024-03-29T00:48:58;14.50;82.20
51811;DHT22;52468;40.116;18.296;2024-03-29T00:51:25;14.50;82.30
51811;DHT22;52468;40.116;18.296;2024-03-29T00:53:52;14.40;82.50
51811;DHT22;52468;40.116;18.296;2024-03-29T00:56:20;14.40;82.60
51811;DHT22;52468;40.116;18.296;2024-03-29T00:58:47;14.40;82.50
51811;DHT22;52468;40.116;18.296;2024-03-29T01:01:14;14.50;82.50
51811;DHT22;52468;40.116;18.296;2024-03-29T01:03:41;14.40;82.70
51811;DHT22;52468;40.116;18.296;2024-03-29T01:06:08;14.40;82.50
51811;DHT22;52468;40.116;18.296;2024-03-29T01:08:35;14.40;82.50
51811;DHT22;52468;40.116;18.296;2024-03-29T01:11:01;14.40;82.50
51811;DHT22;52468;40.116;18.296;2024-03-29T01:13:28;14.40;82.70
51811;DHT22;52468;40.116;18.296;2024-03-29T01:15:55;14.30;82.70
51811;DHT22;52468;40.116;18.296;2024-03-29T01:18:22;14.30;82.60
51811;DHT22;52468;40.116;18.296;2024-03-29T01:20:49;14.30;82.70
51811;DHT22;52468;40.116;18.296;2024-03-29T01:23:16;14.30;82.70
51811;DHT22;52468;40.116;18.296;2024-03-29T01:25:42;14.40;82.70
51811;DHT22;52468;40.116;18.296;2024-03-29T01:28:09;14.40;82.70
51811;DHT22;52468;40.116;18.296;2024-03-29T01:30:36;14.40;82.60
51811;DHT22;52468;40.116;18.296;2024-03-29T01:33:03;14.40;82.60
51811;DHT22;52468;40.116;18.296;2024-03-29T01:35:30;14.40;82.60
51811;DHT22;52468;40.116;18.296;2024-03-29T01:37:57;14.40;82.80
51811;DHT22;52468;40.116;18.296;2024-03-29T01:40:23;14.40;82.90
51811;DHT22;52468;40.116;18.296;2024-03-29T01:42:54;14.30;83.10
51811;DHT22;52468;40.116;18.296;2024-03-29T01:45:21;14.30;83.20
51811;DHT22;52468;40.116;18.296;2024-03-29T01:47:48;14.40;82.90
51811;DHT22;52468;40.116;18.296;2024-03-29T01:50:15;14.40;83.00
51811;DHT22;52468;40.116;18.296;2024-03-29T01:52:42;14.40;83.10
51811;DHT22;52468;40.116;18.296;2024-03-29T01:55:09;14.40;83.00
51811;DHT22;52468;40.116;18.296;2024-03-29T01:57:36;14.30;83.00
51811;DHT22;52468;40.116;18.296;2024-03-29T02:00:04;14.30;82.90
51811;DHT22;52468;40.116;18.296;2024-03-29T02:02:33;14.30;83.00
51811;DHT22;52468;40.116;18.296;2024-03-29T02:05:01;14.30;83.10
51811;DHT22;52468;40.116;18.296;2024-03-29T02:07:29;14.30;83.40
51811;DHT22;52468;40.116;18.296;2024-03-29T02:09:56;14.30;83.40
51811;DHT22;52468;40.116;18.296;2024-03-29T02:12:23;14.20;83.30
51811;DHT22;52468;40.116;18.296;2024-03-29T02:14:50;14.30;83.10
51811;DHT22;52468;40.116;18.296;2024-03-29T02:17:17;14.20;82.90
51811;DHT22;52468;40.116;18.296;2024-03-29T02:19:44;14.20;82.90
51811;DHT22;52468;40.116;18.296;2024-03-29T02:22:14;14.20;83.10
51811;DHT22;52468;40.116;18.296;2024-03-29T02:24:41;14.10;83.40
51811;DHT22;52468;40.116;18.296;2024-03-29T02:27:08;14.10;83.10
51811;DHT22;52468;40.116;18.296;2024-03-29T02:29:36;14.10;82.90
51811;DHT22;52468;40.116;18.296;2024-03-29T02:32:04;14.00;82.80
51811;DHT22;52468;40.116;18.296;2024-03-29T02:34:31;14.00;82.90
51811;DHT22;52468;40.116;18.296;2024-03-29T02:36:57;14.00;82.90
51811;DHT22;52468;40.116;18.296;2024-03-29T02:39:25;14.00;83.00
51811;DHT22;52468;40.116;18.296;2024-03-29T02:41:52;14.00;83.00
51811;DHT22;52468;40.116;18.296;2024-03-29T02:44:19;14.00;83.10
51811;DHT22;52468;40.116;18.296;2024-03-29T02:46:46;14.00;83.20
51811;DHT22;52468;40.116;18.296;2024-03-29T02:49:13;13.90;83.30
51811;DHT22;52468;40.116;18.296;2024-03-29T02:51:39;14.00;83.30
51811;DHT22;52468;40.116;18.296;2024-03-29T02:54:06;14.00;83.10
51811;DHT22;52468;40.116;18.296;2024-03-29T02:56:33;14.00;83.10
51811;DHT22;52468;40.116;18.296;2024-03-29T02:59:00;14.00;83.30
51811;DHT22;52468;40.116;18.296;2024-03-29T03:01:27;14.00;83.20
51811;DHT22;52468;40.116;18.296;2024-03-29T03:03:54;14.00;83.00
51811;DHT22;52468;40.116;18.296;2024-03-29T03:06:20;13.90;83.00
51811;DHT22;52468;40.116;18.296;2024-03-29T03:08:47;13.90;83.10
51811;DHT22;52468;40.116;18.296;2024-03-29T03:11:33;13.90;82.90
51811;DHT22;52468;40.116;18.296;2024-03-29T03:13:59;13.80;83.20
51811;DHT22;52468;40.116;18.296;2024-03-29T03:16:26;13.90;83.20
51811;DHT22;52468;40.116;18.296;2024-03-29T03:18:53;13.90;83.40
51811;DHT22;52468;40.116;18.296;2024-03-29T03:21:20;13.90;83.50
51811;DHT22;52468;40.116;18.296;2024-03-29T03:23:47;13.90;83.40
51811;DHT22;52468;40.116;18.296;2024-03-29T03:26:14;13.90;83.30
51811;DHT22;52468;40.116;18.296;2024-03-29T03:28:41;13.90;83.40
51811;DHT22;52468;40.116;18.296;2024-03-29T03:31:08;13.90;83.40
51811;DHT22;52468;40.116;18.296;2024-03-29T03:33:35;13.90;83.40
51811;DHT22;52468;40.116;18.296;2024-03-29T03:36:02;13.90;83.60
51811;DHT22;52468;40.116;18.296;2024-03-29T03:38:30;13.90;83.70
51811;DHT22;52468;40.116;18.296;2024-03-29T03:40:57;14.00;83.70
51811;DHT22;52468;40.116;18.296;2024-03-29T03:43:24;14.00;83.60
51811;DHT22;52468;40.116;18.296;2024-03-29T03:45:51;14.00;83.70
51811;DHT22;52468;40.116;18.296;2024-03-29T03:48:18;14.00;84.00
51811;DHT22;52468;40.116;18.296;2024-03-29T03:50:45;14.00;84.00
51811;DHT22;52468;40.116;18.296;2024-03-29T03:53:12;14.10;84.30
51811;DHT22;52468;40.116;18.296;2024-03-29T03:55:39;14.10;84.60
51811;DHT22;52468;40.116;18.296;2024-03-29T03:58:06;14.10;84.40
51811;DHT22;52468;40.116;18.296;2024-03-29T04:00:33;14.10;84.30
51811;DHT22;52468;40.116;18.296;2024-03-29T04:03:00;14.10;84.10
51811;DHT22;52468;40.116;18.296;2024-03-29T04:05:27;14.10;84.20
51811;DHT22;52468;40.116;18.296;2024-03-29T04:07:54;14.10;84.10
51811;DHT22;52468;40.116;18.296;2024-03-29T04:10:21;14.10;84.10
51811;DHT22;52468;40.116;18.296;2024-03-29T04:12:49;14.10;84.10
51811;DHT22;52468;40.116;18.296;2024-03-29T04:15:16;14.10;84.10
51811;DHT22;52468;40.116;18.296;2024-03-29T04:17:43;14.10;84.20
51811;DHT22;52468;40.116;18.296;2024-03-29T04:20:10;14.10;84.10
51811;DHT22;52468;40.116;18.296;2024-03-29T04:22:37;14.10;84.10
51811;DHT22;52468;40.116;18.296;2024-03-29T04:25:04;14.00;84.10
51811;DHT22;52468;40.116;18.296;2024-03-29T04:27:31;14.00;84.20
51811;DHT22;52468;40.116;18.296;2024-03-29T04:29:59;14.00;84.40
51811;DHT22;52468;40.116;18.296;2024-03-29T04:32:25;14.00;84.40
51811;DHT22;52468;40.116;18.296;2024-03-29T04:34:52;14.10;84.50
51811;DHT22;52468;40.116;18.296;2024-03-29T04:37:19;14.10;84.50
51811;DHT22;52468;40.116;18.296;2024-03-29T04:39:46;14.10;84.40
51811;DHT22;52468;40.116;18.296;2024-03-29T04:42:13;14.10;84.60
51811;DHT22;52468;40.116;18.296;2024-03-29T04:44:41;14.10;84.70
51811;DHT22;52468;40.116;18.296;2024-03-29T04:47:08;14.10;84.90
51811;DHT22;52468;40.116;18.296;2024-03-29T04:49:36;14.20;84.80
51811;DHT22;52468;40.116;18.296;2024-03-29T04:52:06;14.30;84.70
51811;DHT22;52468;40.116;18.296;2024-03-29T04:54:33;14.30;84.60
51811;DHT22;52468;40.116;18.296;2024-03-29T04:57:01;14.30;84.50
51811;DHT22;52468;40.116;18.296;2024-03-29T04:59:28;14.30;84.70
51811;DHT22;52468;40.116;18.296;2024-03-29T05:01:56;14.40;84.50
51811;DHT22;52468;40.116;18.296;2024-03-29T05:04:23;14.50;84.80
51811;DHT22;52468;40.116;18.296;2024-03-29T05:06:57;14.50;84.70
51811;DHT22;52468;40.116;18.296;2024-03-29T05:09:25;14.60;84.80
51811;DHT22;52468;40.116;18.296;2024-03-29T05:11:52;14.60;84.90
51811;DHT22;52468;40.116;18.296;2024-03-29T05:14:20;14.80;84.80
51811;DHT22;52468;40.116;18.296;2024-03-29T05:16:49;15.00;84.50
51811;DHT22;52468;40.116;18.296;2024-03-29T05:19:16;15.20;84.00
51811;DHT22;52468;40.116;18.296;2024-03-29T05:21:43;15.40;83.80
51811;DHT22;52468;40.116;18.296;2024-03-29T05:24:10;15.30;83.90
51811;DHT22;52468;40.116;18.296;2024-03-29T05:26:37;15.40;84.10
51811;DHT22;52468;40.116;18.296;2024-03-29T05:29:04;15.50;84.10
51811;DHT22;52468;40.116;18.296;2024-03-29T05:31:31;15.60;83.80
51811;DHT22;52468;40.116;18.296;2024-03-29T05:33:58;15.80;83.60
51811;DHT22;52468;40.116;18.296;2024-03-29T05:36:26;16.00;83.40
51811;DHT22;52468;40.116;18.296;2024-03-29T05:38:53;16.10;83.20
51811;DHT22;52468;40.116;18.296;2024-03-29T05:41:21;16.10;82.90
51811;DHT22;52468;40.116;18.296;2024-03-29T05:43:48;16.20;83.00
51811;DHT22;52468;40.116;18.296;2024-03-29T05:46:16;16.30;82.80
51811;DHT22;52468;40.116;18.296;2024-03-29T05:48:44;16.40;82.70
51811;DHT22;52468;40.116;18.296;2024-03-29T05:51:11;16.50;82.70
51811;DHT22;52468;40.116;18.296;2024-03-29T05:56:06;16.60;82.80
51811;DHT22;52468;40.116;18.296;2024-03-29T05:58:33;16.70;82.90
51811;DHT22;52468;40.116;18.296;2024-03-29T06:01:01;16.90;83.20
51811;DHT22;52468;40.116;18.296;2024-03-29T06:03:28;17.00;83.00
51811;DHT22;52468;40.116;18.296;2024-03-29T06:05:56;17.20;83.10
51811;DHT22;52468;40.116;18.296;2024-03-29T06:08:23;17.40;83.20
51811;DHT22;52468;40.116;18.296;2024-03-29T06:10:52;17.60;82.90
51811;DHT22;52468;40.116;18.296;2024-03-29T06:13:19;17.80;82.90
51811;DHT22;52468;40.116;18.296;2024-03-29T06:16:05;18.00;82.60
51811;DHT22;52468;40.116;18.296;2024-03-29T06:18:50;18.10;82.40
51811;DHT22;52468;40.116;18.296;2024-03-29T06:21:17;18.20;82.20
51811;DHT22;52468;40.116;18.296;2024-03-29T06:23:44;18.20;82.30
51811;DHT22;52468;40.116;18.296;2024-03-29T06:26:11;18.40;82.30
51811;DHT22;52468;40.116;18.296;2024-03-29T06:28:37;18.50;82.30
51811;DHT22;52468;40.116;18.296;2024-03-29T06:31:04;18.80;82.40
51811;DHT22;52468;40.116;18.296;2024-03-29T06:33:31;19.00;82.20
51811;DHT22;52468;40.116;18.296;2024-03-29T06:35:58;19.20;82.20
51811;DHT22;52468;40.116;18.296;2024-03-29T06:38:25;19.50;81.70
51811;DHT22;52468;40.116;18.296;2024-03-29T06:40:52;19.60;81.50
51811;DHT22;52468;40.116;18.296;2024-03-29T06:43:18;19.80;81.00
51811;DHT22;52468;40.116;18.296;2024-03-29T06:45:45;19.90;80.60
51811;DHT22;52468;40.116;18.296;2024-03-29T06:48:12;20.00;80.10
51811;DHT22;52468;40.116;18.296;2024-03-29T06:50:39;20.10;80.60
51811;DHT22;52468;40.116;18.296;2024-03-29T06:53:07;20.30;79.80
51811;DHT22;52468;40.116;18.296;2024-03-29T06:55:35;20.40;79.80
51811;DHT22;52468;40.116;18.296;2024-03-29T06:58:05;20.50;79.70
51811;DHT22;52468;40.116;18.296;2024-03-29T07:00:32;20.60;79.50
51811;DHT22;52468;40.116;18.296;2024-03-29T07:02:59;20.70;78.70
51811;DHT22;52468;40.116;18.296;2024-03-29T07:05:26;20.80;78.60
51811;DHT22;52468;40.116;18.296;2024-03-29T07:07:53;20.90;79.40
51811;DHT22;52468;40.116;18.296;2024-03-29T07:10:20;21.00;78.60
51811;DHT22;52468;40.116;18.296;2024-03-29T07:12:47;21.10;77.60
51811;DHT22;52468;40.116;18.296;2024-03-29T07:15:14;21.20;77.70
51811;DHT22;52468;40.116;18.296;2024-03-29T07:17:41;21.30;77.70
51811;DHT22;52468;40.116;18.296;2024-03-29T07:20:10;21.50;76.40
51811;DHT22;52468;40.116;18.296;2024-03-29T07:22:37;21.60;77.10
51811;DHT22;52468;40.116;18.296;2024-03-29T07:25:05;21.80;76.70
51811;DHT22;52468;40.116;18.296;2024-03-29T07:27:32;22.00;76.00
51811;DHT22;52468;40.116;18.296;2024-03-29T07:30:02;22.20;75.20
51811;DHT22;52468;40.116;18.296;2024-03-29T07:32:31;22.30;73.90
51811;DHT22;52468;40.116;18.296;2024-03-29T07:34:58;22.50;74.20
51811;DHT22;52468;40.116;18.296;2024-03-29T07:37:26;22.60;72.40
51811;DHT22;52468;40.116;18.296;2024-03-29T07:39:53;22.80;71.70
51811;DHT22;52468;40.116;18.296;2024-03-29T07:42:20;22.80;71.00
51811;DHT22;52468;40.116;18.296;2024-03-29T07:44:46;23.00;71.20
51811;DHT22;52468;40.116;18.296;2024-03-29T07:47:13;23.10;69.50
51811;DHT22;52468;40.116;18.296;2024-03-29T07:49:41;23.20;69.30
51811;DHT22;52468;40.116;18.296;2024-03-29T07:52:07;23.30;67.20
51811;DHT22;52468;40.116;18.296;2024-03-29T07:54:35;23.50;65.80
51811;DHT22;52468;40.116;18.296;2024-03-29T07:57:02;23.40;62.70
51811;DHT22;52468;40.116;18.296;2024-03-29T07:59:30;23.50;64.30
51811;DHT22;52468;40.116;18.296;2024-03-29T08:01:56;23.80;64.40
51811;DHT22;52468;40.116;18.296;2024-03-29T08:04:24;24.00;61.60
51811;DHT22;52468;40.116;18.296;2024-03-29T08:06:54;24.00;60.90
51811;DHT22;52468;40.116;18.296;2024-03-29T08:09:21;24.30;58.30
51811;DHT22;52468;40.116;18.296;2024-03-29T08:11:48;24.60;58.10
51811;DHT22;52468;40.116;18.296;2024-03-29T08:14:15;24.80;56.00
51811;DHT22;52468;40.116;18.296;2024-03-29T08:16:42;24.70;54.70
51811;DHT22;52468;40.116;18.296;2024-03-29T08:19:09;24.60;53.40
51811;DHT22;52468;40.116;18.296;2024-03-29T08:21:36;24.60;53.70
51811;DHT22;52468;40.116;18.296;2024-03-29T08:24:03;24.70;53.50
51811;DHT22;52468;40.116;18.296;2024-03-29T08:26:30;24.90;51.80
51811;DHT22;52468;40.116;18.296;2024-03-29T08:28:57;25.00;51.40
51811;DHT22;52468;40.116;18.296;2024-03-29T08:31:24;25.00;49.70
51811;DHT22;52468;40.116;18.296;2024-03-29T08:33:51;25.00;50.00
51811;DHT22;52468;40.116;18.296;2024-03-29T08:36:18;25.00;50.60
51811;DHT22;52468;40.116;18.296;2024-03-29T08:38:45;25.20;49.90
51811;DHT22;52468;40.116;18.296;2024-03-29T08:41:13;25.40;49.50
51811;DHT22;52468;40.116;18.296;2024-03-29T08:43:41;25.50;48.70
51811;DHT22;52468;40.116;18.296;2024-03-29T08:46:08;25.60;48.20
51811;DHT22;52468;40.116;18.296;2024-03-29T08:48:35;25.60;48.70
51811;DHT22;52468;40.116;18.296;2024-03-29T08:51:06;25.60;49.00
51811;DHT22;52468;40.116;18.296;2024-03-29T08:53:33;25.50;48.70
51811;DHT22;52468;40.116;18.296;2024-03-29T08:56:00;25.30;49.40
51811;DHT22;52468;40.116;18.296;2024-03-29T08:58:27;25.00;50.00
51811;DHT22;52468;40.116;18.296;2024-03-29T09:00:55;24.90;50.30
51811;DHT22;52468;40.116;18.296;2024-03-29T09:03:25;25.00;50.10
51811;DHT22;52468;40.116;18.296;2024-03-29T09:05:52;25.00;50.00
51811;DHT22;52468;40.116;18.296;2024-03-29T09:08:18;24.80;49.90
51811;DHT22;52468;40.116;18.296;2024-03-29T09:10:46;24.50;50.60
51811;DHT22;52468;40.116;18.296;2024-03-29T09:13:13;24.20;51.30
51811;DHT22;52468;40.116;18.296;2024-03-29T09:15:40;24.20;52.00
51811;DHT22;52468;40.116;18.296;2024-03-29T09:18:07;24.30;52.20
51811;DHT22;52468;40.116;18.296;2024-03-29T09:20:44;24.40;52.20
51811;DHT22;52468;40.116;18.296;2024-03-29T09:23:11;24.40;52.50
51811;DHT22;52468;40.116;18.296;2024-03-29T09:25:42;24.50;52.50
51811;DHT22;52468;40.116;18.296;2024-03-29T09:28:09;24.60;51.60
51811;DHT22;52468;40.116;18.296;2024-03-29T09:30:36;24.60;51.20
51811;DHT22;52468;40.116;18.296;2024-03-29T09:33:03;24.80;50.70
51811;DHT22;52468;40.116;18.296;2024-03-29T09:35:33;24.80;50.50
51811;DHT22;52468;40.116;18.296;2024-03-29T09:38:00;24.90;49.90
51811;DHT22;52468;40.116;18.296;2024-03-29T09:40:27;24.80;50.20
51811;DHT22;52468;40.116;18.296;2024-03-29T09:42:57;25.00;49.90
51811;DHT22;52468;40.116;18.296;2024-03-29T09:45:33;24.90;49.80
51811;DHT22;52468;40.116;18.296;2024-03-29T09:48:05;24.90;50.70
51811;DHT22;52468;40.116;18.296;2024-03-29T09:50:37;24.90;50.90
51811;DHT22;52468;40.116;18.296;2024-03-29T09:53:08;24.90;50.70
51811;DHT22;52468;40.116;18.296;2024-03-29T09:55:36;25.10;50.40
51811;DHT22;52468;40.116;18.296;2024-03-29T09:58:05;25.10;49.90
51811;DHT22;52468;40.116;18.296;2024-03-29T10:00:32;25.10;49.70
51811;DHT22;52468;40.116;18.296;2024-03-29T10:02:59;25.20;49.20
51811;DHT22;52468;40.116;18.296;2024-03-29T10:05:27;25.50;48.50
51811;DHT22;52468;40.116;18.296;2024-03-29T10:07:55;25.20;49.10
51811;DHT22;52468;40.116;18.296;2024-03-29T10:10:23;25.20;49.50
51811;DHT22;52468;40.116;18.296;2024-03-29T10:12:50;25.30;49.20
51811;DHT22;52468;40.116;18.296;2024-03-29T10:15:17;25.40;49.20
51811;DHT22;52468;40.116;18.296;2024-03-29T10:17:47;25.10;49.70
51811;DHT22;52468;40.116;18.296;2024-03-29T10:20:18;25.10;50.50
51811;DHT22;52468;40.116;18.296;2024-03-29T10:22:46;25.20;49.50
51811;DHT22;52468;40.116;18.296;2024-03-29T10:25:16;25.20;49.10
51811;DHT22;52468;40.116;18.296;2024-03-29T10:27:43;25.50;49.00
51811;DHT22;52468;40.116;18.296;2024-03-29T10:30:11;25.50;49.10
51811;DHT22;52468;40.116;18.296;2024-03-29T10:32:41;25.30;49.60
51811;DHT22;52468;40.116;18.296;2024-03-29T10:35:08;25.20;50.10
51811;DHT22;52468;40.116;18.296;2024-03-29T10:37:36;25.40;50.20
51811;DHT22;52468;40.116;18.296;2024-03-29T10:40:10;25.50;50.00
51811;DHT22;52468;40.116;18.296;2024-03-29T10:42:37;25.80;49.40
51811;DHT22;52468;40.116;18.296;2024-03-29T10:45:08;25.80;48.60
51811;DHT22;52468;40.116;18.296;2024-03-29T10:47:36;25.90;47.90
51811;DHT22;52468;40.116;18.296;2024-03-29T10:50:03;25.90;47.30
51811;DHT22;52468;40.116;18.296;2024-03-29T10:52:31;25.80;47.30
51811;DHT22;52468;40.116;18.296;2024-03-29T10:54:59;25.60;47.00
51811;DHT22;52468;40.116;18.296;2024-03-29T10:57:26;25.30;47.80
51811;DHT22;52468;40.116;18.296;2024-03-29T11:02:51;25.00;48.70
51811;DHT22;52468;40.116;18.296;2024-03-29T11:05:22;25.00;49.00
51811;DHT22;52468;40.116;18.296;2024-03-29T11:07:50;25.50;48.70
51811;DHT22;52468;40.116;18.296;2024-03-29T11:10:40;25.80;48.20
51811;DHT22;52468;40.116;18.296;2024-03-29T11:13:14;25.90;47.90
51811;DHT22;52468;40.116;18.296;2024-03-29T11:15:41;26.10;47.70
51811;DHT22;52468;40.116;18.296;2024-03-29T11:18:11;26.20;46.70
51811;DHT22;52468;40.116;18.296;2024-03-29T11:20:38;26.20;46.50
51811;DHT22;52468;40.116;18.296;2024-03-29T11:23:09;26.30;46.10
51811;DHT22;52468;40.116;18.296;2024-03-29T11:25:49;26.00;45.60
51811;DHT22;52468;40.116;18.296;2024-03-29T11:28:31;25.80;45.80
51811;DHT22;52468;40.116;18.296;2024-03-29T11:31:02;25.80;46.00
51811;DHT22;52468;40.116;18.296;2024-03-29T11:36:13;25.70;46.50
51811;DHT22;52468;40.116;18.296;2024-03-29T11:38:40;25.70;46.50
51811;DHT22;52468;40.116;18.296;2024-03-29T11:41:13;25.60;46.20
51811;DHT22;52468;40.116;18.296;2024-03-29T11:43:41;25.80;46.00
51811;DHT22;52468;40.116;18.296;2024-03-29T11:46:11;25.80;46.10
51811;DHT22;52468;40.116;18.296;2024-03-29T11:48:38;25.80;46.60
51811;DHT22;52468;40.116;18.296;2024-03-29T11:51:11;25.60;46.70
51811;DHT22;52468;40.116;18.296;2024-03-29T11:53:39;25.70;45.90
51811;DHT22;52468;40.116;18.296;2024-03-29T11:56:07;25.60;45.60
51811;DHT22;52468;40.116;18.296;2024-03-29T11:58:34;25.80;46.00
51811;DHT22;52468;40.116;18.296;2024-03-29T12:01:02;25.90;45.70
51811;DHT22;52468;40.116;18.296;2024-03-29T12:03:30;26.00;45.70
51811;DHT22;52468;40.116;18.296;2024-03-29T12:05:59;26.00;44.90
51811;DHT22;52468;40.116;18.296;2024-03-29T12:08:39;26.00;43.80
51811;DHT22;52468;40.116;18.296;2024-03-29T12:11:08;26.00;44.70
51811;DHT22;52468;40.116;18.296;2024-03-29T12:13:35;26.10;45.00
51811;DHT22;52468;40.116;18.296;2024-03-29T12:16:02;26.30;43.90
51811;DHT22;52468;40.116;18.296;2024-03-29T12:18:32;26.30;43.50
51811;DHT22;52468;40.116;18.296;2024-03-29T12:20:59;26.00;44.40
51811;DHT22;52468;40.116;18.296;2024-03-29T12:23:26;25.80;45.20
51811;DHT22;52468;40.116;18.296;2024-03-29T12:25:55;25.90;44.50
51811;DHT22;52468;40.116;18.296;2024-03-29T12:28:25;25.90;44.50
51811;DHT22;52468;40.116;18.296;2024-03-29T12:30:52;25.90;44.20
51811;DHT22;52468;40.116;18.296;2024-03-29T12:33:22;25.80;43.70
51811;DHT22;52468;40.116;18.296;2024-03-29T12:35:50;25.90;43.30
51811;DHT22;52468;40.116;18.296;2024-03-29T12:38:20;25.90;43.30
51811;DHT22;52468;40.116;18.296;2024-03-29T12:40:49;26.00;43.40
51811;DHT22;52468;40.116;18.296;2024-03-29T12:43:20;25.90;43.70
51811;DHT22;52468;40.116;18.296;2024-03-29T12:45:48;26.00;43.90
51811;DHT22;52468;40.116;18.296;2024-03-29T12:48:18;25.90;43.50
51811;DHT22;52468;40.116;18.296;2024-03-29T12:50:50;25.80;43.50
51811;DHT22;52468;40.116;18.296;2024-03-29T12:53:17;25.80;44.30
51811;DHT22;52468;40.116;18.296;2024-03-29T12:55:45;25.80;44.10
51811;DHT22;52468;40.116;18.296;2024-03-29T12:58:17;25.70;44.40
51811;DHT22;52468;40.116;18.296;2024-03-29T13:00:47;25.60;44.70
51811;DHT22;52468;40.116;18.296;2024-03-29T13:03:14;25.60;44.90
51811;DHT22;52468;40.116;18.296;2024-03-29T13:05:42;25.70;45.00
51811;DHT22;52468;40.116;18.296;2024-03-29T13:08:14;25.60;45.50
51811;DHT22;52468;40.116;18.296;2024-03-29T13:10:43;25.50;45.60
51811;DHT22;52468;40.116;18.296;2024-03-29T13:13:10;25.60;45.30
51811;DHT22;52468;40.116;18.296;2024-03-29T13:15:38;25.50;45.10
51811;DHT22;52468;40.116;18.296;2024-03-29T13:18:06;25.50;44.70
51811;DHT22;52468;40.116;18.296;2024-03-29T13:20:36;25.60;45.60
51811;DHT22;52468;40.116;18.296;2024-03-29T13:23:08;25.60;46.30
51811;DHT22;52468;40.116;18.296;2024-03-29T13:25:35;25.60;45.00
51811;DHT22;52468;40.116;18.296;2024-03-29T13:28:02;25.40;45.60
51811;DHT22;52468;40.116;18.296;2024-03-29T13:30:29;25.50;44.70
51811;DHT22;52468;40.116;18.296;2024-03-29T13:32:56;25.60;44.20
51811;DHT22;52468;40.116;18.296;2024-03-29T13:35:23;25.70;43.80
51811;DHT22;52468;40.116;18.296;2024-03-29T13:37:51;25.70;43.60
51811;DHT22;52468;40.116;18.296;2024-03-29T13:40:21;25.70;43.50
51811;DHT22;52468;40.116;18.296;2024-03-29T13:42:48;25.60;43.40
51811;DHT22;52468;40.116;18.296;2024-03-29T13:45:15;25.70;43.20
51811;DHT22;52468;40.116;18.296;2024-03-29T13:47:44;25.80;43.40
51811;DHT22;52468;40.116;18.296;2024-03-29T13:50:12;25.80;43.20
51811;DHT22;52468;40.116;18.296;2024-03-29T13:52:43;25.60;43.80
51811;DHT22;52468;40.116;18.296;2024-03-29T13:55:10;25.60;43.60
51811;DHT22;52468;40.116;18.296;2024-03-29T13:57:38;25.60;43.10
51811;DHT22;52468;40.116;18.296;2024-03-29T14:00:06;25.80;43.50
51811;DHT22;52468;40.116;18.296;2024-03-29T14:02:33;26.10;43.20
51811;DHT22;52468;40.116;18.296;2024-03-29T14:05:01;26.70;41.20
51811;DHT22;52468;40.116;18.296;2024-03-29T14:07:28;27.30;39.60
51811;DHT22;52468;40.116;18.296;2024-03-29T14:09:55;28.00;38.50
51811;DHT22;52468;40.116;18.296;2024-03-29T14:12:22;29.10;36.50
51811;DHT22;52468;40.116;18.296;2024-03-29T14:14:54;30.80;34.50
51811;DHT22;52468;40.116;18.296;2024-03-29T14:19:48;33.10;30.30
51811;DHT22;52468;40.116;18.296;2024-03-29T14:22:16;34.00;29.30
51811;DHT22;52468;40.116;18.296;2024-03-29T14:24:45;34.50;28.70
51811;DHT22;52468;40.116;18.296;2024-03-29T14:27:13;34.60;27.90
51811;DHT22;52468;40.116;18.296;2024-03-29T14:29:40;34.80;28.00
51811;DHT22;52468;40.116;18.296;2024-03-29T14:32:07;35.00;27.10
51811;DHT22;52468;40.116;18.296;2024-03-29T14:34:33;35.10;26.80
51811;DHT22;52468;40.116;18.296;2024-03-29T14:37:05;35.30;26.50
51811;DHT22;52468;40.116;18.296;2024-03-29T14:39:32;35.50;26.30
51811;DHT22;52468;40.116;18.296;2024-03-29T14:44:31;35.80;26.30
51811;DHT22;52468;40.116;18.296;2024-03-29T14:46:58;36.00;25.80
51811;DHT22;52468;40.116;18.296;2024-03-29T14:49:25;36.10;25.40
51811;DHT22;52468;40.116;18.296;2024-03-29T14:51:51;35.90;25.10
51811;DHT22;52468;40.116;18.296;2024-03-29T14:54:18;35.20;25.40
51811;DHT22;52468;40.116;18.296;2024-03-29T14:56:45;35.10;25.10
51811;DHT22;52468;40.116;18.296;2024-03-29T14:59:14;35.00;25.50
51811;DHT22;52468;40.116;18.296;2024-03-29T15:01:41;35.40;25.10
51811;DHT22;52468;40.116;18.296;2024-03-29T15:04:09;35.50;25.00
51811;DHT22;52468;40.116;18.296;2024-03-29T15:06:36;35.50;24.90
51811;DHT22;52468;40.116;18.296;2024-03-29T15:09:03;35.60;24.80
51811;DHT22;52468;40.116;18.296;2024-03-29T15:11:30;36.00;24.60
51811;DHT22;52468;40.116;18.296;2024-03-29T15:14:00;36.10;24.50
51811;DHT22;52468;40.116;18.296;2024-03-29T15:16:27;36.10;24.40
51811;DHT22;52468;40.116;18.296;2024-03-29T15:18:54;35.90;24.00
51811;DHT22;52468;40.116;18.296;2024-03-29T15:21:23;35.50;23.80
51811;DHT22;52468;40.116;18.296;2024-03-29T15:23:50;35.30;24.20
51811;DHT22;52468;40.116;18.296;2024-03-29T15:26:17;35.50;24.20
51811;DHT22;52468;40.116;18.296;2024-03-29T15:28:46;35.40;23.90
51811;DHT22;52468;40.116;18.296;2024-03-29T15:31:32;35.10;24.10
51811;DHT22;52468;40.116;18.296;2024-03-29T15:33:59;34.90;24.30